createdAt,value
2022-11-04T00:00:08.198Z,13.10
2022-11-04T00:02:35.638Z,13.01
2022-11-04T00:05:03.311Z,13.02
2022-11-04T00:07:49.332Z,13.05
2022-11-04T00:10:16.803Z,13.02
2022-11-04T00:12:44.159Z,12.93
2022-11-04T00:15:30.214Z,12.90
2022-11-04T00:17:58.499Z,12.97
2022-11-04T00:20:44.356Z,12.95
2022-11-04T00:23:30.166Z,12.90
2022-11-04T00:26:16.108Z,12.91
2022-11-04T00:28:43.543Z,12.88
2022-11-04T00:31:29.615Z,12.79
2022-11-04T00:33:58.402Z,12.72
2022-11-04T00:36:26.060Z,12.78
2022-11-04T00:38:53.801Z,12.75
2022-11-04T00:41:27.824Z,12.73
2022-11-04T00:44:04.038Z,12.70
2022-11-04T00:46:32.958Z,12.65
2022-11-04T00:49:00.681Z,12.60
2022-11-04T00:51:28.130Z,12.66
2022-11-04T00:53:55.894Z,12.61
2022-11-04T00:56:23.397Z,12.61
2022-11-04T00:58:51.190Z,12.59
2022-11-04T01:01:19.194Z,12.50
2022-11-04T01:03:48.276Z,12.48
2022-11-04T01:06:16.278Z,12.41
2022-11-04T01:08:44.092Z,12.43
2022-11-04T01:11:11.992Z,12.29
2022-11-04T01:13:40.007Z,12.32
2022-11-04T01:16:09.583Z,12.31
2022-11-04T01:18:37.472Z,12.29
2022-11-04T01:21:06.827Z,12.25
2022-11-04T01:23:34.987Z,12.25
2022-11-04T01:26:06.387Z,12.18
2022-11-04T01:28:34.050Z,12.08
2022-11-04T01:31:16.526Z,12.09
2022-11-04T01:33:44.287Z,12.11
2022-11-04T01:36:11.936Z,12.01
2022-11-04T01:38:39.464Z,12.04
2022-11-04T01:41:08.004Z,12.01
2022-11-04T01:43:50.233Z,11.94
2022-11-04T01:46:33.141Z,11.87
2022-11-04T01:49:20.762Z,11.87
2022-11-04T01:51:49.773Z,11.88
2022-11-04T01:54:18.149Z,11.75
2022-11-04T01:56:45.944Z,11.82
2022-11-04T01:59:27.968Z,11.76
2022-11-04T02:01:55.460Z,11.74
2022-11-04T02:04:26.162Z,11.72
2022-11-04T02:06:56.851Z,11.69
2022-11-04T02:09:25.701Z,11.66
2022-11-04T02:12:11.743Z,11.65
2022-11-04T02:14:39.671Z,11.60
2022-11-04T02:17:19.124Z,11.56
2022-11-04T02:20:12.208Z,11.51
2022-11-04T02:23:04.390Z,11.46
2022-11-04T02:25:50.225Z,11.48
2022-11-04T02:28:28.074Z,11.42
2022-11-04T02:31:10.686Z,11.41
2022-11-04T02:33:42.257Z,11.28
2022-11-04T02:36:18.856Z,11.34
2022-11-04T02:38:46.220Z,11.36
2022-11-04T02:41:26.939Z,11.33
2022-11-04T02:44:05.487Z,11.26
2022-11-04T02:46:36.983Z,11.31
2022-11-04T02:49:19.119Z,11.26
2022-11-04T02:52:03.302Z,11.23
2022-11-04T02:54:39.252Z,11.15
2022-11-04T02:57:09.432Z,11.27
2022-11-04T02:59:40.191Z,11.08
2022-11-04T03:02:12.777Z,11.18
2022-11-04T03:04:46.792Z,11.21
2022-11-04T03:07:16.285Z,11.22
2022-11-04T03:09:48.168Z,11.19
2022-11-04T03:12:17.944Z,11.18
2022-11-04T03:14:51.185Z,11.22
2022-11-04T03:17:22.963Z,11.20
2022-11-04T03:19:57.927Z,11.10
2022-11-04T03:22:28.121Z,11.12
2022-11-04T03:24:55.674Z,11.16
2022-11-04T03:27:37.361Z,11.03
2022-11-04T03:30:08.202Z,11.12
2022-11-04T03:32:43.910Z,11.11
2022-11-04T03:35:12.757Z,11.10
2022-11-04T03:37:40.155Z,10.98
2022-11-04T03:40:08.436Z,11.06
2022-11-04T03:42:40.754Z,11.03
2022-11-04T03:45:09.036Z,11.02
2022-11-04T03:47:37.198Z,10.97
2022-11-04T03:50:13.518Z,10.93
2022-11-04T03:52:41.259Z,10.92
2022-11-04T03:55:09.280Z,10.84
2022-11-04T03:57:53.293Z,10.85
2022-11-04T04:00:22.114Z,10.88
2022-11-04T04:03:26.314Z,10.74
2022-11-04T04:06:02.653Z,10.80
2022-11-04T04:08:50.208Z,10.76
2022-11-04T04:11:32.915Z,10.77
2022-11-04T04:14:03.286Z,10.65
2022-11-04T04:16:37.838Z,10.74
2022-11-04T04:19:09.655Z,10.76
2022-11-04T04:21:43.101Z,10.71
2022-11-04T04:24:31.053Z,10.72
2022-11-04T04:27:17.491Z,10.71
2022-11-04T04:29:45.519Z,10.64
2022-11-04T04:32:13.711Z,10.68
2022-11-04T04:34:41.110Z,10.64
2022-11-04T04:37:21.316Z,10.61
2022-11-04T04:40:11.249Z,10.60
2022-11-04T04:42:57.740Z,10.54
2022-11-04T04:45:25.834Z,10.61
2022-11-04T04:47:53.387Z,10.57
2022-11-04T04:50:21.985Z,10.59
2022-11-04T04:52:52.929Z,10.57
2022-11-04T04:55:21.465Z,10.55
2022-11-04T04:57:48.912Z,10.54
2022-11-04T05:00:19.163Z,10.54
2022-11-04T05:02:46.778Z,10.52
2022-11-04T05:07:46.503Z,10.44
2022-11-04T05:10:15.414Z,10.45
2022-11-04T05:13:01.862Z,10.48
2022-11-04T05:15:30.171Z,10.45
2022-11-04T05:17:59.561Z,10.34
2022-11-04T05:20:27.360Z,10.40
2022-11-04T05:22:55.342Z,10.39
2022-11-04T05:25:22.774Z,10.34
2022-11-04T05:27:50.338Z,10.32
2022-11-04T05:30:18.109Z,10.34
2022-11-04T05:32:45.540Z,10.25
2022-11-04T05:35:12.955Z,10.32
2022-11-04T05:37:40.381Z,10.18
2022-11-04T05:40:08.382Z,10.26
2022-11-04T05:42:36.884Z,10.24
2022-11-04T05:45:04.889Z,10.29
2022-11-04T05:47:32.330Z,10.28
2022-11-04T05:49:59.890Z,10.27
2022-11-04T05:52:27.278Z,10.32
2022-11-04T05:54:54.680Z,10.31
2022-11-04T05:57:22.085Z,10.36
2022-11-04T05:59:49.575Z,10.36
2022-11-04T06:02:17.072Z,10.40
2022-11-04T06:04:44.619Z,10.29
2022-11-04T06:07:13.372Z,10.47
2022-11-04T06:09:40.839Z,10.46
2022-11-04T06:12:16.866Z,10.46
2022-11-04T06:14:44.715Z,10.51
2022-11-04T06:17:16.857Z,10.51
2022-11-04T06:19:44.571Z,10.58
2022-11-04T06:22:13.439Z,10.62
2022-11-04T06:24:41.593Z,10.66
2022-11-04T06:27:09.793Z,10.67
2022-11-04T06:29:40.187Z,10.69
2022-11-04T06:32:13.503Z,10.69
2022-11-04T06:34:40.926Z,10.67
2022-11-04T06:37:09.828Z,10.75
2022-11-04T06:39:37.737Z,10.83
2022-11-04T06:42:05.473Z,10.86
2022-11-04T06:44:34.604Z,10.94
2022-11-04T06:58:04.435Z,9.80
2022-11-04T07:00:32.102Z,9.92
2022-11-04T07:02:59.512Z,10.04
2022-11-04T07:05:27.079Z,10.31
2022-11-04T07:07:54.664Z,10.46
2022-11-04T07:10:22.027Z,10.54
2022-11-04T07:12:49.409Z,10.76
2022-11-04T07:15:16.916Z,10.90
2022-11-04T07:17:45.024Z,10.89
2022-11-04T07:20:15.172Z,11.16
2022-11-04T07:22:42.668Z,11.25
2022-11-04T07:25:10.183Z,11.35
2022-11-04T07:27:37.573Z,11.43
2022-11-04T07:30:05.292Z,11.56
2022-11-04T07:32:33.312Z,11.71
2022-11-04T07:35:00.691Z,11.68
2022-11-04T07:37:28.204Z,11.82
2022-11-04T07:39:55.565Z,11.88
2022-11-04T07:42:23.007Z,11.95
2022-11-04T07:44:55.078Z,11.94
2022-11-04T07:47:22.571Z,12.01
2022-11-04T07:49:50.013Z,12.14
2022-11-04T07:52:17.478Z,12.21
2022-11-04T07:54:44.919Z,12.26
2022-11-04T07:57:12.397Z,12.26
2022-11-04T07:59:39.832Z,12.40
2022-11-04T08:02:07.527Z,12.45
2022-11-04T08:04:34.996Z,12.54
2022-11-04T08:07:02.752Z,12.57
2022-11-04T08:09:30.118Z,12.65
2022-11-04T08:11:57.472Z,12.73
2022-11-04T08:14:24.893Z,12.72
2022-11-04T08:16:52.340Z,12.86
2022-11-04T08:19:19.820Z,12.95
2022-11-04T08:21:47.415Z,13.00
2022-11-04T08:24:14.859Z,13.10
2022-11-04T08:26:42.431Z,13.14
2022-11-04T08:29:09.922Z,13.21
2022-11-04T08:31:37.496Z,13.33
2022-11-04T08:34:06.197Z,13.36
2022-11-04T08:36:36.770Z,13.35
2022-11-04T08:39:10.181Z,13.45
2022-11-04T08:41:41.233Z,13.64
2022-11-04T08:44:09.225Z,13.76
2022-11-04T08:46:38.596Z,13.87
2022-11-04T08:49:09.967Z,13.99
2022-11-04T08:51:41.527Z,14.00
2022-11-04T08:54:09.282Z,14.14
2022-11-04T08:56:38.208Z,14.26
2022-11-04T08:59:05.953Z,14.32
2022-11-04T09:01:36.133Z,14.49
2022-11-04T09:04:04.938Z,14.57
2022-11-04T09:06:35.958Z,14.68
2022-11-04T09:09:05.832Z,14.85
2022-11-04T09:11:37.404Z,14.95
2022-11-04T09:14:05.918Z,15.12
2022-11-04T09:16:34.761Z,15.15
2022-11-04T09:19:02.224Z,15.35
2022-11-04T09:21:30.083Z,15.38
2022-11-04T09:23:57.618Z,15.61
2022-11-04T09:26:25.697Z,15.76
2022-11-04T09:28:57.881Z,15.89
2022-11-04T09:31:26.238Z,15.83
2022-11-04T09:33:54.764Z,16.21
2022-11-04T09:36:22.340Z,16.37
2022-11-04T09:38:49.813Z,16.51
2022-11-04T09:41:32.568Z,16.68
2022-11-04T09:44:20.202Z,16.80
2022-11-04T09:46:49.463Z,17.03
2022-11-04T09:49:17.291Z,17.14
2022-11-04T09:51:54.188Z,17.36
2022-11-04T09:54:23.218Z,17.45
2022-11-04T09:56:53.096Z,17.64
2022-11-04T09:59:32.806Z,17.67
2022-11-04T10:02:25.272Z,17.90
2022-11-04T10:04:58.774Z,18.19
2022-11-04T10:07:45.180Z,18.32
2022-11-04T10:10:12.528Z,18.51
2022-11-04T10:12:49.147Z,18.47
2022-11-04T10:15:34.247Z,18.57
2022-11-04T10:18:17.335Z,18.66
2022-11-04T10:20:53.567Z,18.88
2022-11-04T10:23:22.943Z,18.97
2022-11-04T10:25:54.183Z,19.00
2022-11-04T10:28:27.372Z,19.06
2022-11-04T10:30:55.938Z,19.10
2022-11-04T10:33:33.678Z,19.15
2022-11-04T10:36:04.656Z,19.22
2022-11-04T10:38:46.168Z,19.12
2022-11-04T10:41:35.100Z,19.09
2022-11-04T10:44:20.494Z,19.06
2022-11-04T10:47:22.224Z,19.09
2022-11-04T10:50:30.762Z,19.01
2022-11-04T10:53:17.965Z,19.04
2022-11-04T10:55:49.354Z,19.08
2022-11-04T10:58:39.811Z,19.06
2022-11-04T11:01:22.627Z,19.09
2022-11-04T11:03:50.139Z,19.12
2022-11-04T11:06:33.759Z,19.19
2022-11-04T11:09:13.991Z,19.14
2022-11-04T11:11:41.484Z,19.26
2022-11-04T11:14:38.289Z,19.14
2022-11-04T11:17:24.645Z,19.18
2022-11-04T11:20:08.241Z,19.32
2022-11-04T11:22:39.983Z,19.37
2022-11-04T11:25:33.370Z,19.36
2022-11-04T11:28:06.947Z,19.44
2022-11-04T11:30:44.068Z,19.48
2022-11-04T11:33:20.554Z,19.59
2022-11-04T11:35:52.290Z,19.64
2022-11-04T11:38:22.788Z,19.69
2022-11-04T11:41:22.854Z,19.76
2022-11-04T11:43:44.075Z,19.69
2022-11-04T11:46:12.565Z,19.71
2022-11-04T11:48:42.794Z,19.76
2022-11-04T11:51:14.841Z,19.78
2022-11-04T11:54:02.329Z,19.75
2022-11-04T11:57:06.885Z,19.80
2022-11-04T12:02:40.636Z,19.82
2022-11-04T12:11:25.696Z,20.02
2022-11-04T12:13:56.562Z,20.00
2022-11-04T12:16:52.837Z,20.02
2022-11-04T12:19:47.528Z,20.03
2022-11-04T12:22:44.369Z,20.02
2022-11-04T12:25:32.827Z,20.12
2022-11-04T12:28:31.263Z,20.10
2022-11-04T12:31:13.612Z,20.12
2022-11-04T12:33:49.289Z,20.09
2022-11-04T12:36:25.717Z,20.04
2022-11-04T12:39:14.106Z,20.01
2022-11-04T12:42:29.627Z,20.01
2022-11-04T12:45:17.330Z,19.97
2022-11-04T12:47:46.323Z,19.97
2022-11-04T12:50:42.588Z,19.91
2022-11-04T12:53:17.405Z,19.93
2022-11-04T12:56:14.562Z,19.86
2022-11-04T12:59:00.880Z,19.86
2022-11-04T13:01:35.400Z,19.82
2022-11-04T13:04:18.200Z,19.80
2022-11-04T13:06:48.983Z,19.85
2022-11-04T13:09:56.325Z,19.97
2022-11-04T13:12:44.259Z,19.87
2022-11-04T13:15:24.938Z,19.95
2022-11-04T13:17:58.118Z,19.95
2022-11-04T13:20:43.378Z,19.92
2022-11-04T13:23:20.139Z,19.89
2022-11-04T13:25:48.198Z,19.95
2022-11-04T13:28:17.565Z,19.97
2022-11-04T13:31:03.169Z,19.91
2022-11-04T13:33:48.064Z,19.84
2022-11-04T13:36:22.421Z,19.92
2022-11-04T13:39:04.737Z,19.88
2022-11-04T13:41:59.913Z,19.72
2022-11-04T13:44:35.979Z,19.67
2022-11-04T13:47:11.906Z,19.73
2022-11-04T13:49:39.361Z,19.62
2022-11-04T13:52:11.979Z,19.59
2022-11-04T13:54:53.067Z,19.50
2022-11-04T13:57:31.344Z,19.41
2022-11-04T14:00:10.976Z,19.52
2022-11-04T14:02:46.645Z,19.49
2022-11-04T14:05:34.557Z,19.56
2022-11-04T14:08:02.178Z,19.63
2022-11-04T14:10:53.678Z,19.58
2022-11-04T14:13:32.994Z,19.56
2022-11-04T14:16:05.773Z,19.57
2022-11-04T14:18:35.572Z,19.58
2022-11-04T14:21:12.902Z,19.52
2022-11-04T14:23:46.364Z,19.46
2022-11-04T14:26:18.781Z,19.54
2022-11-04T14:28:48.736Z,19.53
2022-11-04T14:31:35.032Z,19.41
2022-11-04T14:34:03.407Z,19.48
2022-11-04T14:36:40.739Z,19.35
2022-11-04T14:39:11.229Z,19.42
2022-11-04T14:41:41.595Z,19.39
2022-11-04T14:44:47.978Z,19.31
2022-11-04T14:47:25.498Z,19.26
2022-11-04T14:49:58.894Z,19.18
2022-11-04T14:52:38.953Z,19.28
2022-11-04T14:55:22.831Z,19.22
2022-11-04T14:57:54.954Z,19.21
2022-11-04T15:00:33.318Z,19.14
2022-11-04T15:03:11.182Z,19.12
2022-11-04T15:05:50.865Z,19.09
2022-11-04T15:08:38.665Z,19.03
2022-11-04T15:11:19.089Z,18.86
2022-11-04T15:13:47.489Z,19.02
2022-11-04T15:16:18.676Z,18.95
2022-11-04T15:18:46.319Z,18.93
2022-11-04T15:21:14.222Z,18.86
2022-11-04T15:23:47.338Z,18.85
2022-11-04T15:26:30.016Z,18.78
2022-11-04T15:29:02.210Z,18.77
2022-11-04T15:31:31.721Z,18.80
2022-11-04T15:34:01.156Z,18.66
2022-11-04T15:36:36.610Z,18.75
2022-11-04T15:39:03.960Z,18.76
2022-11-04T15:41:50.375Z,18.65
2022-11-04T15:44:20.903Z,18.64
2022-11-04T15:46:54.962Z,18.66
2022-11-04T15:49:28.258Z,18.61
2022-11-04T15:51:59.695Z,18.63
2022-11-04T15:54:31.943Z,18.60
2022-11-04T15:57:01.459Z,18.58
2022-11-04T15:59:32.475Z,18.57
2022-11-04T16:02:00.386Z,18.55
2022-11-04T16:04:28.632Z,18.40
2022-11-04T16:07:10.078Z,18.46
2022-11-04T16:09:52.431Z,18.39
2022-11-04T16:12:38.173Z,18.32
2022-11-04T16:15:05.971Z,18.38
2022-11-04T16:17:33.603Z,18.33
2022-11-04T16:20:04.117Z,18.19
2022-11-04T16:22:40.830Z,18.11
2022-11-04T16:25:11.771Z,18.20
2022-11-04T16:27:39.886Z,18.11
2022-11-04T16:30:10.815Z,18.11
2022-11-04T16:32:47.972Z,17.99
2022-11-04T16:35:20.143Z,18.08
2022-11-04T16:37:48.648Z,18.06
2022-11-04T16:40:16.290Z,18.03
2022-11-04T16:42:44.847Z,18.05
2022-11-04T16:45:25.560Z,17.93
2022-11-04T16:47:53.933Z,18.06
2022-11-04T16:50:22.313Z,18.09
2022-11-04T16:52:49.902Z,18.01
2022-11-04T16:55:18.103Z,17.97
2022-11-04T16:57:46.765Z,17.91
2022-11-04T17:00:22.787Z,17.96
2022-11-04T17:02:51.355Z,17.96
2022-11-04T17:05:19.899Z,17.95
2022-11-04T17:07:53.623Z,17.86
2022-11-04T17:10:26.819Z,17.92
2022-11-04T17:12:54.651Z,17.89
2022-11-04T17:15:22.672Z,17.86
2022-11-04T17:17:50.250Z,17.87
2022-11-04T17:20:18.282Z,17.81
2022-11-04T17:22:47.070Z,17.85
2022-11-04T17:25:21.513Z,17.81
2022-11-04T17:27:49.236Z,17.80
2022-11-04T17:30:17.781Z,17.81
2022-11-04T17:32:46.116Z,17.77
2022-11-04T17:35:14.105Z,17.72
2022-11-04T17:37:41.858Z,17.58
2022-11-04T17:40:14.067Z,17.61
2022-11-04T17:43:00.097Z,17.60
2022-11-04T17:45:27.829Z,17.59
2022-11-04T17:47:55.212Z,17.60
2022-11-04T17:50:23.033Z,17.59
2022-11-04T17:52:50.568Z,17.64
2022-11-04T17:55:21.865Z,17.60
2022-11-04T17:57:52.243Z,17.60
2022-11-04T18:00:25.977Z,17.63
2022-11-04T18:02:53.626Z,17.65
2022-11-04T18:10:40.447Z,16.94
2022-11-04T18:13:08.392Z,16.92
2022-11-04T18:15:36.119Z,16.98
2022-11-04T18:18:03.670Z,17.06
2022-11-04T18:20:31.431Z,17.07
2022-11-04T18:23:00.242Z,17.17
2022-11-04T18:25:27.780Z,17.08
2022-11-04T18:27:55.355Z,17.20
2022-11-04T18:30:23.236Z,17.27
2022-11-04T18:32:50.907Z,17.27
2022-11-04T18:35:18.706Z,17.31
2022-11-04T18:37:47.603Z,17.35
2022-11-04T18:40:16.200Z,17.33
2022-11-04T18:42:44.568Z,17.35
2022-11-04T18:45:12.105Z,17.39
2022-11-04T18:47:39.683Z,17.39
2022-11-04T18:50:07.522Z,17.35
2022-11-04T18:52:34.932Z,17.36
2022-11-04T18:55:02.370Z,17.37
2022-11-04T18:57:29.987Z,17.34
2022-11-04T18:59:57.593Z,17.37
2022-11-04T19:02:25.359Z,17.37
2022-11-04T19:04:53.249Z,17.42
2022-11-04T19:07:20.978Z,17.42
2022-11-04T19:09:48.467Z,17.38
2022-11-04T19:12:35.575Z,17.42
2022-11-04T19:15:05.390Z,17.46
2022-11-04T19:17:35.331Z,17.46
2022-11-04T19:20:10.198Z,17.43
2022-11-04T19:22:39.319Z,17.39
2022-11-04T19:25:07.317Z,17.40
2022-11-04T19:27:35.161Z,17.44
2022-11-04T19:30:02.912Z,17.46
2022-11-04T19:32:30.384Z,17.43
2022-11-04T19:34:57.884Z,17.41
2022-11-04T19:37:25.443Z,17.49
2022-11-04T19:39:53.226Z,17.35
2022-11-04T19:42:39.377Z,17.39
2022-11-04T19:45:07.409Z,17.38
2022-11-04T19:47:35.051Z,17.35
2022-11-04T19:50:02.875Z,17.35
2022-11-04T19:52:31.019Z,17.35
2022-11-04T19:54:58.600Z,17.31
2022-11-04T19:57:27.302Z,17.32
2022-11-04T19:59:54.794Z,17.36
2022-11-04T20:02:23.011Z,17.32
2022-11-04T20:04:50.509Z,17.34
2022-11-04T20:07:17.984Z,17.32
2022-11-04T20:09:45.526Z,17.29
2022-11-04T20:12:31.712Z,17.27
2022-11-04T20:14:59.403Z,17.25
2022-11-04T20:17:26.972Z,17.23
2022-11-04T20:19:54.543Z,17.21
2022-11-04T20:22:21.942Z,17.21
2022-11-04T20:24:49.517Z,17.23
2022-11-04T20:27:16.958Z,17.20
2022-11-04T20:29:44.726Z,17.16
2022-11-04T20:32:12.303Z,17.17
2022-11-04T20:34:40.124Z,17.17
2022-11-04T20:37:07.941Z,17.18
2022-11-04T20:39:35.497Z,17.09
2022-11-04T20:42:03.161Z,17.10
2022-11-04T20:44:30.758Z,17.12
2022-11-04T20:46:58.307Z,17.04
2022-11-04T20:49:25.860Z,17.11
2022-11-04T20:51:55.372Z,17.02
2022-11-04T20:54:23.322Z,17.05
2022-11-04T20:56:50.784Z,17.04
2022-11-04T20:59:18.434Z,17.01
2022-11-04T21:01:47.735Z,17.06
2022-11-04T21:04:21.501Z,17.07
2022-11-04T21:06:50.362Z,17.04
2022-11-04T21:09:19.951Z,17.02
2022-11-04T21:11:47.427Z,17.04
2022-11-04T21:14:16.681Z,17.06
2022-11-04T21:16:44.174Z,16.94
2022-11-04T21:19:16.918Z,17.00
2022-11-04T21:21:48.744Z,16.98
2022-11-04T21:24:16.926Z,16.96
2022-11-04T21:26:45.721Z,16.99
2022-11-04T21:29:15.796Z,16.99
2022-11-04T21:31:44.482Z,16.99
2022-11-04T21:34:12.676Z,16.97
2022-11-04T21:36:40.484Z,16.94
2022-11-04T21:39:11.028Z,16.92
2022-11-04T21:41:38.959Z,16.89
2022-11-04T21:44:08.750Z,16.83
2022-11-04T21:46:36.471Z,16.88
2022-11-04T21:49:03.886Z,16.86
2022-11-04T21:51:32.656Z,16.90
2022-11-04T21:54:00.418Z,16.86
2022-11-04T21:56:29.633Z,16.91
2022-11-04T21:58:57.207Z,16.87
2022-11-04T22:01:26.408Z,16.89
2022-11-04T22:03:56.177Z,16.89
2022-11-04T22:06:26.624Z,16.90
2022-11-04T22:08:56.982Z,16.87
2022-11-04T22:11:29.240Z,16.91
2022-11-04T22:14:01.828Z,16.84
2022-11-04T22:16:32.364Z,16.88
2022-11-04T22:19:01.582Z,16.83
2022-11-04T22:21:29.843Z,16.88
2022-11-04T22:23:58.342Z,16.89
2022-11-04T22:26:31.673Z,16.83
2022-11-04T22:28:59.755Z,16.83
2022-11-04T22:31:32.277Z,16.86
2022-11-04T22:34:00.851Z,16.89
2022-11-04T22:36:28.865Z,16.71
2022-11-04T22:38:57.038Z,16.76
2022-11-04T22:41:30.504Z,16.69
2022-11-04T22:43:58.701Z,16.76
2022-11-04T22:46:31.595Z,16.69
2022-11-04T22:49:01.773Z,16.77
2022-11-04T22:51:31.357Z,16.79
2022-11-04T22:54:04.592Z,16.72
2022-11-04T22:56:35.513Z,16.74
2022-11-04T22:59:03.071Z,16.72
2022-11-04T23:01:31.792Z,16.67
2022-11-04T23:03:59.843Z,16.77
2022-11-04T23:06:27.411Z,16.77
2022-11-04T23:09:00.452Z,16.78
2022-11-04T23:11:47.995Z,16.75
2022-11-04T23:14:36.522Z,16.73
2022-11-04T23:17:39.350Z,16.67
2022-11-04T23:20:12.732Z,16.76
2022-11-04T23:22:58.603Z,16.71
2022-11-04T23:25:26.465Z,16.74
2022-11-04T23:28:13.978Z,16.76
2022-11-04T23:30:45.807Z,16.76
2022-11-04T23:33:14.782Z,16.65
2022-11-04T23:36:05.929Z,16.74
2022-11-04T23:38:33.820Z,16.75
2022-11-04T23:41:22.360Z,16.71
2022-11-04T23:43:49.958Z,16.72
2022-11-04T23:46:42.219Z,16.75
2022-11-04T23:49:30.047Z,16.60
2022-11-04T23:52:16.018Z,16.67
2022-11-04T23:55:09.463Z,16.59
2022-11-04T23:57:55.251Z,16.58
